sensor_id;sensor_type;location;lat;lon;timestamp;P1;durP1;ratioP1;P2;durP2;ratioP2
2225;SDS011;1119;48.288;8.726;2022-09-12T00:01:35;5.80;;;5.50;;
2225;SDS011;1119;48.288;8.726;2022-09-12T00:04:02;6.20;;;5.70;;
2225;SDS011;1119;48.288;8.726;2022-09-12T00:06:30;6.30;;;5.90;;
2225;SDS011;1119;48.288;8.726;2022-09-12T00:09:00;7.43;;;6.93;;
2225;SDS011;1119;48.288;8.726;2022-09-12T00:11:33;7.30;;;6.70;;
2225;SDS011;1119;48.288;8.726;2022-09-12T00:14:01;6.80;;;6.40;;
2225;SDS011;1119;48.288;8.726;2022-09-12T00:16:33;6.30;;;5.90;;
2225;SDS011;1119;48.288;8.726;2022-09-12T00:19:03;7.30;;;6.83;;
2225;SDS011;1119;48.288;8.726;2022-09-12T00:21:31;6.87;;;6.47;;
2225;SDS011;1119;48.288;8.726;2022-09-12T00:24:00;6.83;;;6.33;;
2225;SDS011;1119;48.288;8.726;2022-09-12T00:26:28;6.30;;;6.00;;
2225;SDS011;1119;48.288;8.726;2022-09-12T00:28:57;6.33;;;5.93;;
2225;SDS011;1119;48.288;8.726;2022-09-12T00:31:24;6.67;;;6.27;;
2225;SDS011;1119;48.288;8.726;2022-09-12T00:33:53;6.80;;;6.40;;
2225;SDS011;1119;48.288;8.726;2022-09-12T00:36:25;7.47;;;6.87;;
2225;SDS011;1119;48.288;8.726;2022-09-12T00:38:53;7.20;;;6.63;;
2225;SDS011;1119;48.288;8.726;2022-09-12T00:41:21;6.50;;;6.10;;
2225;SDS011;1119;48.288;8.726;2022-09-12T00:43:51;6.23;;;5.83;;
2225;SDS011;1119;48.288;8.726;2022-09-12T00:46:26;6.67;;;6.17;;
2225;SDS011;1119;48.288;8.726;2022-09-12T00:49:00;6.23;;;5.83;;
2225;SDS011;1119;48.288;8.726;2022-09-12T00:51:31;6.77;;;6.30;;
2225;SDS011;1119;48.288;8.726;2022-09-12T00:54:04;7.67;;;6.80;;
2225;SDS011;1119;48.288;8.726;2022-09-12T00:56:35;6.77;;;6.27;;
2225;SDS011;1119;48.288;8.726;2022-09-12T00:59:05;7.90;;;7.10;;
2225;SDS011;1119;48.288;8.726;2022-09-12T01:01:39;7.57;;;6.97;;
2225;SDS011;1119;48.288;8.726;2022-09-12T01:04:08;7.53;;;7.13;;
2225;SDS011;1119;48.288;8.726;2022-09-12T01:06:43;8.03;;;7.50;;
2225;SDS011;1119;48.288;8.726;2022-09-12T01:09:14;7.07;;;6.57;;
2225;SDS011;1119;48.288;8.726;2022-09-12T01:11:45;7.40;;;6.87;;
2225;SDS011;1119;48.288;8.726;2022-09-12T01:14:14;8.23;;;7.53;;
2225;SDS011;1119;48.288;8.726;2022-09-12T01:16:44;7.33;;;6.83;;
2225;SDS011;1119;48.288;8.726;2022-09-12T01:19:18;6.43;;;5.93;;
2225;SDS011;1119;48.288;8.726;2022-09-12T01:22:47;6.87;;;6.37;;
2225;SDS011;1119;48.288;8.726;2022-09-12T01:25:37;6.97;;;6.47;;
2225;SDS011;1119;48.288;8.726;2022-09-12T01:28:31;7.90;;;7.30;;
2225;SDS011;1119;48.288;8.726;2022-09-12T01:31:18;8.17;;;7.50;;
2225;SDS011;1119;48.288;8.726;2022-09-12T01:33:52;7.60;;;7.00;;
2225;SDS011;1119;48.288;8.726;2022-09-12T01:36:31;8.20;;;7.60;;
2225;SDS011;1119;48.288;8.726;2022-09-12T01:39:08;8.27;;;7.60;;
2225;SDS011;1119;48.288;8.726;2022-09-12T01:41:47;7.57;;;7.07;;
2225;SDS011;1119;48.288;8.726;2022-09-12T01:44:22;8.50;;;7.90;;
2225;SDS011;1119;48.288;8.726;2022-09-12T01:47:01;9.17;;;8.37;;
2225;SDS011;1119;48.288;8.726;2022-09-12T01:49:35;8.53;;;7.93;;
2225;SDS011;1119;48.288;8.726;2022-09-12T01:52:12;8.47;;;7.77;;
2225;SDS011;1119;48.288;8.726;2022-09-12T01:54:45;7.60;;;7.00;;
2225;SDS011;1119;48.288;8.726;2022-09-12T01:57:17;8.27;;;7.67;;
2225;SDS011;1119;48.288;8.726;2022-09-12T01:59:51;13.80;;;7.57;;
2225;SDS011;1119;48.288;8.726;2022-09-12T02:02:26;8.13;;;7.53;;
2225;SDS011;1119;48.288;8.726;2022-09-12T02:04:59;7.97;;;7.37;;
2225;SDS011;1119;48.288;8.726;2022-09-12T02:07:32;7.67;;;7.07;;
2225;SDS011;1119;48.288;8.726;2022-09-12T02:10:05;7.77;;;7.23;;
2225;SDS011;1119;48.288;8.726;2022-09-12T02:12:39;6.50;;;6.10;;
2225;SDS011;1119;48.288;8.726;2022-09-12T02:15:12;7.27;;;6.80;;
2225;SDS011;1119;48.288;8.726;2022-09-12T02:17:42;8.67;;;8.03;;
2225;SDS011;1119;48.288;8.726;2022-09-12T02:20:14;6.83;;;6.43;;
2225;SDS011;1119;48.288;8.726;2022-09-12T02:22:45;8.53;;;7.73;;
2225;SDS011;1119;48.288;8.726;2022-09-12T02:25:14;8.33;;;7.73;;
2225;SDS011;1119;48.288;8.726;2022-09-12T02:27:44;8.70;;;8.10;;
2225;SDS011;1119;48.288;8.726;2022-09-12T02:30:15;7.63;;;7.13;;
2225;SDS011;1119;48.288;8.726;2022-09-12T02:32:46;8.30;;;7.67;;
2225;SDS011;1119;48.288;8.726;2022-09-12T02:35:29;7.20;;;6.70;;
2225;SDS011;1119;48.288;8.726;2022-09-12T02:38:01;11.00;;;8.40;;
2225;SDS011;1119;48.288;8.726;2022-09-12T02:40:33;9.07;;;8.30;;
2225;SDS011;1119;48.288;8.726;2022-09-12T02:43:01;7.83;;;7.23;;
2225;SDS011;1119;48.288;8.726;2022-09-12T02:45:30;7.73;;;7.20;;
2225;SDS011;1119;48.288;8.726;2022-09-12T02:48:01;7.50;;;6.73;;
2225;SDS011;1119;48.288;8.726;2022-09-12T02:50:33;8.30;;;7.50;;
2225;SDS011;1119;48.288;8.726;2022-09-12T02:53:01;8.77;;;8.17;;
2225;SDS011;1119;48.288;8.726;2022-09-12T02:55:30;7.70;;;7.10;;
2225;SDS011;1119;48.288;8.726;2022-09-12T02:57:59;7.70;;;7.20;;
2225;SDS011;1119;48.288;8.726;2022-09-12T03:00:28;7.40;;;6.70;;
2225;SDS011;1119;48.288;8.726;2022-09-12T03:03:08;6.93;;;6.30;;
2225;SDS011;1119;48.288;8.726;2022-09-12T03:05:52;7.70;;;7.10;;
2225;SDS011;1119;48.288;8.726;2022-09-12T03:08:40;8.00;;;6.93;;
2225;SDS011;1119;48.288;8.726;2022-09-12T03:11:24;8.17;;;7.43;;
2225;SDS011;1119;48.288;8.726;2022-09-12T03:14:11;7.17;;;6.57;;
2225;SDS011;1119;48.288;8.726;2022-09-12T03:16:50;7.73;;;7.13;;
2225;SDS011;1119;48.288;8.726;2022-09-12T03:19:31;7.70;;;7.10;;
2225;SDS011;1119;48.288;8.726;2022-09-12T03:22:09;6.90;;;6.40;;
2225;SDS011;1119;48.288;8.726;2022-09-12T03:24:45;6.83;;;6.43;;
2225;SDS011;1119;48.288;8.726;2022-09-12T03:27:23;8.00;;;7.30;;
2225;SDS011;1119;48.288;8.726;2022-09-12T03:29:55;7.27;;;6.67;;
2225;SDS011;1119;48.288;8.726;2022-09-12T03:32:38;7.70;;;7.00;;
2225;SDS011;1119;48.288;8.726;2022-09-12T03:35:08;8.27;;;7.67;;
2225;SDS011;1119;48.288;8.726;2022-09-12T03:37:37;8.57;;;7.70;;
2225;SDS011;1119;48.288;8.726;2022-09-12T03:40:04;7.70;;;7.10;;
2225;SDS011;1119;48.288;8.726;2022-09-12T03:42:33;6.77;;;6.37;;
2225;SDS011;1119;48.288;8.726;2022-09-12T03:45:01;7.37;;;6.77;;
2225;SDS011;1119;48.288;8.726;2022-09-12T03:47:28;8.10;;;7.40;;
2225;SDS011;1119;48.288;8.726;2022-09-12T03:49:55;7.20;;;6.70;;
2225;SDS011;1119;48.288;8.726;2022-09-12T03:52:24;8.23;;;7.63;;
2225;SDS011;1119;48.288;8.726;2022-09-12T03:54:52;6.20;;;5.80;;
2225;SDS011;1119;48.288;8.726;2022-09-12T03:57:19;8.10;;;7.50;;
2225;SDS011;1119;48.288;8.726;2022-09-12T03:59:47;8.50;;;7.90;;
2225;SDS011;1119;48.288;8.726;2022-09-12T04:02:14;8.50;;;7.90;;
2225;SDS011;1119;48.288;8.726;2022-09-12T04:04:42;8.77;;;8.07;;
2225;SDS011;1119;48.288;8.726;2022-09-12T04:07:13;8.87;;;8.17;;
2225;SDS011;1119;48.288;8.726;2022-09-12T04:09:42;8.97;;;8.27;;
2225;SDS011;1119;48.288;8.726;2022-09-12T04:12:09;7.30;;;6.70;;
2225;SDS011;1119;48.288;8.726;2022-09-12T04:14:38;7.80;;;7.30;;
2225;SDS011;1119;48.288;8.726;2022-09-12T04:17:05;9.07;;;8.23;;
2225;SDS011;1119;48.288;8.726;2022-09-12T04:19:32;9.13;;;8.43;;
2225;SDS011;1119;48.288;8.726;2022-09-12T04:22:00;8.80;;;8.20;;
2225;SDS011;1119;48.288;8.726;2022-09-12T04:24:27;11.80;;;8.87;;
2225;SDS011;1119;48.288;8.726;2022-09-12T04:26:56;9.37;;;8.70;;
2225;SDS011;1119;48.288;8.726;2022-09-12T04:29:23;11.50;;;8.20;;
2225;SDS011;1119;48.288;8.726;2022-09-12T04:31:52;9.70;;;9.03;;
2225;SDS011;1119;48.288;8.726;2022-09-12T04:34:19;9.67;;;8.87;;
2225;SDS011;1119;48.288;8.726;2022-09-12T04:36:47;10.23;;;8.83;;
2225;SDS011;1119;48.288;8.726;2022-09-12T04:39:14;8.60;;;8.00;;
2225;SDS011;1119;48.288;8.726;2022-09-12T04:41:42;10.40;;;9.50;;
2225;SDS011;1119;48.288;8.726;2022-09-12T04:44:12;10.60;;;9.70;;
2225;SDS011;1119;48.288;8.726;2022-09-12T04:46:41;9.63;;;8.73;;
2225;SDS011;1119;48.288;8.726;2022-09-12T04:49:11;10.77;;;9.93;;
2225;SDS011;1119;48.288;8.726;2022-09-12T04:51:42;10.70;;;9.90;;
2225;SDS011;1119;48.288;8.726;2022-09-12T04:54:10;9.90;;;9.10;;
2225;SDS011;1119;48.288;8.726;2022-09-12T04:56:41;9.47;;;8.77;;
2225;SDS011;1119;48.288;8.726;2022-09-12T04:59:12;11.00;;;10.10;;
2225;SDS011;1119;48.288;8.726;2022-09-12T05:01:44;13.50;;;10.23;;
2225;SDS011;1119;48.288;8.726;2022-09-12T05:04:12;14.13;;;12.07;;
2225;SDS011;1119;48.288;8.726;2022-09-12T05:06:40;19.40;;;14.53;;
2225;SDS011;1119;48.288;8.726;2022-09-12T05:09:09;14.57;;;12.40;;
2225;SDS011;1119;48.288;8.726;2022-09-12T05:11:40;10.77;;;9.77;;
2225;SDS011;1119;48.288;8.726;2022-09-12T05:14:09;10.10;;;9.20;;
2225;SDS011;1119;48.288;8.726;2022-09-12T05:16:38;10.23;;;9.50;;
2225;SDS011;1119;48.288;8.726;2022-09-12T05:19:06;10.80;;;9.90;;
2225;SDS011;1119;48.288;8.726;2022-09-12T05:21:35;9.97;;;9.13;;
2225;SDS011;1119;48.288;8.726;2022-09-12T05:24:03;10.33;;;9.20;;
2225;SDS011;1119;48.288;8.726;2022-09-12T05:26:30;9.33;;;8.60;;
2225;SDS011;1119;48.288;8.726;2022-09-12T05:28:58;7.30;;;6.73;;
2225;SDS011;1119;48.288;8.726;2022-09-12T05:31:26;8.10;;;7.50;;
2225;SDS011;1119;48.288;8.726;2022-09-12T05:33:54;8.20;;;7.60;;
2225;SDS011;1119;48.288;8.726;2022-09-12T05:36:22;7.57;;;6.97;;
2225;SDS011;1119;48.288;8.726;2022-09-12T05:38:51;7.63;;;7.00;;
2225;SDS011;1119;48.288;8.726;2022-09-12T05:41:19;6.67;;;6.17;;
2225;SDS011;1119;48.288;8.726;2022-09-12T05:43:50;7.50;;;6.87;;
2225;SDS011;1119;48.288;8.726;2022-09-12T05:46:19;7.67;;;7.10;;
2225;SDS011;1119;48.288;8.726;2022-09-12T05:48:49;11.03;;;6.70;;
2225;SDS011;1119;48.288;8.726;2022-09-12T05:51:19;6.90;;;6.50;;
2225;SDS011;1119;48.288;8.726;2022-09-12T05:53:54;7.67;;;7.03;;
2225;SDS011;1119;48.288;8.726;2022-09-12T05:56:24;6.50;;;6.13;;
2225;SDS011;1119;48.288;8.726;2022-09-12T05:58:53;6.67;;;6.37;;
2225;SDS011;1119;48.288;8.726;2022-09-12T06:01:23;7.83;;;7.33;;
2225;SDS011;1119;48.288;8.726;2022-09-12T06:04:07;6.90;;;6.40;;
2225;SDS011;1119;48.288;8.726;2022-09-12T06:06:37;7.43;;;6.93;;
2225;SDS011;1119;48.288;8.726;2022-09-12T06:09:09;8.43;;;7.73;;
2225;SDS011;1119;48.288;8.726;2022-09-12T06:11:37;7.10;;;6.80;;
2225;SDS011;1119;48.288;8.726;2022-09-12T06:14:06;7.10;;;6.70;;
2225;SDS011;1119;48.288;8.726;2022-09-12T06:16:35;6.70;;;6.40;;
2225;SDS011;1119;48.288;8.726;2022-09-12T06:19:11;7.67;;;7.27;;
2225;SDS011;1119;48.288;8.726;2022-09-12T06:21:43;7.20;;;6.90;;
2225;SDS011;1119;48.288;8.726;2022-09-12T06:24:13;7.10;;;6.80;;
2225;SDS011;1119;48.288;8.726;2022-09-12T06:26:42;7.73;;;7.33;;
2225;SDS011;1119;48.288;8.726;2022-09-12T06:29:10;7.13;;;6.83;;
2225;SDS011;1119;48.288;8.726;2022-09-12T06:31:38;6.97;;;6.67;;
2225;SDS011;1119;48.288;8.726;2022-09-12T06:34:09;7.77;;;6.90;;
2225;SDS011;1119;48.288;8.726;2022-09-12T06:36:39;7.20;;;6.90;;
2225;SDS011;1119;48.288;8.726;2022-09-12T06:39:10;8.03;;;7.30;;
2225;SDS011;1119;48.288;8.726;2022-09-12T06:41:39;6.80;;;6.50;;
2225;SDS011;1119;48.288;8.726;2022-09-12T06:44:08;6.60;;;6.20;;
2225;SDS011;1119;48.288;8.726;2022-09-12T06:46:38;6.40;;;6.10;;
2225;SDS011;1119;48.288;8.726;2022-09-12T06:49:11;6.57;;;6.27;;
2225;SDS011;1119;48.288;8.726;2022-09-12T06:51:39;6.67;;;6.37;;
2225;SDS011;1119;48.288;8.726;2022-09-12T06:54:07;6.53;;;6.17;;
2225;SDS011;1119;48.288;8.726;2022-09-12T06:56:37;7.00;;;6.70;;
2225;SDS011;1119;48.288;8.726;2022-09-12T06:59:05;6.60;;;6.30;;
2225;SDS011;1119;48.288;8.726;2022-09-12T07:06:36;6.90;;;6.60;;
2225;SDS011;1119;48.288;8.726;2022-09-12T07:09:06;6.20;;;5.90;;
2225;SDS011;1119;48.288;8.726;2022-09-12T07:11:36;6.80;;;6.50;;
2225;SDS011;1119;48.288;8.726;2022-09-12T07:14:06;6.10;;;5.90;;
2225;SDS011;1119;48.288;8.726;2022-09-12T07:16:42;6.13;;;5.93;;
2225;SDS011;1119;48.288;8.726;2022-09-12T07:19:09;6.73;;;6.43;;
2225;SDS011;1119;48.288;8.726;2022-09-12T07:21:39;6.40;;;6.10;;
2225;SDS011;1119;48.288;8.726;2022-09-12T07:24:06;6.20;;;5.90;;
2225;SDS011;1119;48.288;8.726;2022-09-12T07:26:35;6.17;;;5.97;;
2225;SDS011;1119;48.288;8.726;2022-09-12T07:29:04;5.93;;;5.63;;
2225;SDS011;1119;48.288;8.726;2022-09-12T07:31:31;6.90;;;6.43;;
2225;SDS011;1119;48.288;8.726;2022-09-12T07:33:59;6.40;;;6.10;;
2225;SDS011;1119;48.288;8.726;2022-09-12T07:36:31;6.30;;;6.10;;
2225;SDS011;1119;48.288;8.726;2022-09-12T07:39:00;6.33;;;5.70;;
2225;SDS011;1119;48.288;8.726;2022-09-12T07:41:29;5.93;;;5.67;;
2225;SDS011;1119;48.288;8.726;2022-09-12T07:43:58;6.00;;;5.70;;
2225;SDS011;1119;48.288;8.726;2022-09-12T07:46:27;5.43;;;5.23;;
2225;SDS011;1119;48.288;8.726;2022-09-12T07:48:56;5.73;;;5.53;;
2225;SDS011;1119;48.288;8.726;2022-09-12T07:51:26;5.60;;;5.37;;
2225;SDS011;1119;48.288;8.726;2022-09-12T07:53:55;6.73;;;6.23;;
2225;SDS011;1119;48.288;8.726;2022-09-12T07:56:24;5.80;;;5.60;;
2225;SDS011;1119;48.288;8.726;2022-09-12T07:58:54;5.70;;;5.50;;
2225;SDS011;1119;48.288;8.726;2022-09-12T08:01:21;6.47;;;6.10;;
2225;SDS011;1119;48.288;8.726;2022-09-12T08:03:51;6.20;;;5.80;;
2225;SDS011;1119;48.288;8.726;2022-09-12T08:06:21;6.67;;;6.40;;
2225;SDS011;1119;48.288;8.726;2022-09-12T08:08:50;6.33;;;5.93;;
2225;SDS011;1119;48.288;8.726;2022-09-12T08:11:18;6.93;;;6.63;;
2225;SDS011;1119;48.288;8.726;2022-09-12T08:13:48;6.10;;;5.80;;
2225;SDS011;1119;48.288;8.726;2022-09-12T08:16:17;6.80;;;6.50;;
2225;SDS011;1119;48.288;8.726;2022-09-12T08:18:46;5.60;;;5.40;;
2225;SDS011;1119;48.288;8.726;2022-09-12T08:21:14;5.53;;;5.30;;
2225;SDS011;1119;48.288;8.726;2022-09-12T08:23:43;6.07;;;5.67;;
2225;SDS011;1119;48.288;8.726;2022-09-12T08:26:11;6.00;;;5.70;;
2225;SDS011;1119;48.288;8.726;2022-09-12T08:28:38;5.80;;;5.60;;
2225;SDS011;1119;48.288;8.726;2022-09-12T08:31:12;5.50;;;5.10;;
2225;SDS011;1119;48.288;8.726;2022-09-12T08:33:41;6.40;;;5.90;;
2225;SDS011;1119;48.288;8.726;2022-09-12T08:36:09;5.20;;;4.90;;
2225;SDS011;1119;48.288;8.726;2022-09-12T08:38:38;5.47;;;5.27;;
2225;SDS011;1119;48.288;8.726;2022-09-12T08:41:08;4.67;;;4.47;;
2225;SDS011;1119;48.288;8.726;2022-09-12T08:43:51;5.60;;;5.40;;
2225;SDS011;1119;48.288;8.726;2022-09-12T08:46:48;5.17;;;4.90;;
2225;SDS011;1119;48.288;8.726;2022-09-12T08:49:37;5.00;;;4.80;;
2225;SDS011;1119;48.288;8.726;2022-09-12T08:52:13;4.77;;;4.57;;
2225;SDS011;1119;48.288;8.726;2022-09-12T08:54:48;4.60;;;4.40;;
2225;SDS011;1119;48.288;8.726;2022-09-12T08:57:15;5.30;;;5.00;;
2225;SDS011;1119;48.288;8.726;2022-09-12T08:59:44;4.23;;;4.03;;
2225;SDS011;1119;48.288;8.726;2022-09-12T09:02:19;4.80;;;4.60;;
2225;SDS011;1119;48.288;8.726;2022-09-12T09:05:11;5.90;;;5.60;;
2225;SDS011;1119;48.288;8.726;2022-09-12T09:10:46;4.83;;;4.53;;
2225;SDS011;1119;48.288;8.726;2022-09-12T09:13:21;4.93;;;4.63;;
2225;SDS011;1119;48.288;8.726;2022-09-12T09:16:20;4.90;;;4.70;;
2225;SDS011;1119;48.288;8.726;2022-09-12T09:18:56;5.10;;;4.90;;
2225;SDS011;1119;48.288;8.726;2022-09-12T09:21:28;4.10;;;3.87;;
2225;SDS011;1119;48.288;8.726;2022-09-12T09:24:01;4.90;;;4.70;;
2225;SDS011;1119;48.288;8.726;2022-09-12T09:26:36;4.67;;;4.47;;
2225;SDS011;1119;48.288;8.726;2022-09-12T09:29:12;4.53;;;4.33;;
2225;SDS011;1119;48.288;8.726;2022-09-12T09:31:43;5.13;;;4.93;;
2225;SDS011;1119;48.288;8.726;2022-09-12T09:34:17;5.00;;;4.60;;
2225;SDS011;1119;48.288;8.726;2022-09-12T09:36:48;5.30;;;4.60;;
2225;SDS011;1119;48.288;8.726;2022-09-12T09:39:28;4.43;;;4.23;;
2225;SDS011;1119;48.288;8.726;2022-09-12T09:42:13;4.60;;;4.40;;
2225;SDS011;1119;48.288;8.726;2022-09-12T09:44:52;4.63;;;4.43;;
2225;SDS011;1119;48.288;8.726;2022-09-12T09:47:24;3.90;;;3.80;;
2225;SDS011;1119;48.288;8.726;2022-09-12T09:49:52;4.83;;;4.63;;
2225;SDS011;1119;48.288;8.726;2022-09-12T09:52:23;5.33;;;4.83;;
2225;SDS011;1119;48.288;8.726;2022-09-12T09:54:54;5.47;;;5.17;;
2225;SDS011;1119;48.288;8.726;2022-09-12T09:57:37;4.47;;;4.27;;
2225;SDS011;1119;48.288;8.726;2022-09-12T10:00:23;4.50;;;4.30;;
2225;SDS011;1119;48.288;8.726;2022-09-12T10:03:00;4.80;;;4.60;;
2225;SDS011;1119;48.288;8.726;2022-09-12T10:05:49;4.90;;;4.53;;
2225;SDS011;1119;48.288;8.726;2022-09-12T10:08:21;4.70;;;4.50;;
2225;SDS011;1119;48.288;8.726;2022-09-12T10:10:52;4.80;;;4.50;;
2225;SDS011;1119;48.288;8.726;2022-09-12T10:13:30;4.30;;;4.10;;
2225;SDS011;1119;48.288;8.726;2022-09-12T10:16:16;4.20;;;4.10;;
2225;SDS011;1119;48.288;8.726;2022-09-12T10:18:46;3.80;;;3.70;;
2225;SDS011;1119;48.288;8.726;2022-09-12T10:21:26;4.17;;;3.97;;
2225;SDS011;1119;48.288;8.726;2022-09-12T10:23:58;4.30;;;4.20;;
2225;SDS011;1119;48.288;8.726;2022-09-12T10:26:31;4.67;;;4.47;;
2225;SDS011;1119;48.288;8.726;2022-09-12T10:29:03;4.90;;;4.70;;
2225;SDS011;1119;48.288;8.726;2022-09-12T10:31:44;3.77;;;3.67;;
2225;SDS011;1119;48.288;8.726;2022-09-12T10:34:19;4.17;;;3.87;;
2225;SDS011;1119;48.288;8.726;2022-09-12T10:37:02;4.37;;;4.23;;
2225;SDS011;1119;48.288;8.726;2022-09-12T10:39:31;4.63;;;4.20;;
2225;SDS011;1119;48.288;8.726;2022-09-12T10:42:00;4.30;;;4.10;;
2225;SDS011;1119;48.288;8.726;2022-09-12T10:44:30;3.87;;;3.77;;
2225;SDS011;1119;48.288;8.726;2022-09-12T10:46:59;4.40;;;4.27;;
2225;SDS011;1119;48.288;8.726;2022-09-12T10:49:46;4.30;;;4.00;;
2225;SDS011;1119;48.288;8.726;2022-09-12T10:52:17;4.03;;;3.90;;
2225;SDS011;1119;48.288;8.726;2022-09-12T10:54:48;4.10;;;3.90;;
2225;SDS011;1119;48.288;8.726;2022-09-12T11:00:19;4.10;;;4.00;;
2225;SDS011;1119;48.288;8.726;2022-09-12T11:02:56;4.80;;;4.50;;
2225;SDS011;1119;48.288;8.726;2022-09-12T11:05:44;4.30;;;4.17;;
2225;SDS011;1119;48.288;8.726;2022-09-12T11:11:16;4.40;;;4.20;;
2225;SDS011;1119;48.288;8.726;2022-09-12T11:14:10;4.30;;;4.10;;
2225;SDS011;1119;48.288;8.726;2022-09-12T11:16:51;4.73;;;4.60;;
2225;SDS011;1119;48.288;8.726;2022-09-12T11:19:30;3.97;;;3.77;;
2225;SDS011;1119;48.288;8.726;2022-09-12T11:22:44;4.67;;;4.37;;
2225;SDS011;1119;48.288;8.726;2022-09-12T11:25:33;3.70;;;3.60;;
2225;SDS011;1119;48.288;8.726;2022-09-12T11:28:15;3.80;;;3.70;;
2225;SDS011;1119;48.288;8.726;2022-09-12T11:30:58;4.90;;;4.70;;
2225;SDS011;1119;48.288;8.726;2022-09-12T11:33:49;4.00;;;3.77;;
2225;SDS011;1119;48.288;8.726;2022-09-12T11:36:26;3.50;;;3.40;;
2225;SDS011;1119;48.288;8.726;2022-09-12T11:39:05;3.17;;;3.07;;
2225;SDS011;1119;48.288;8.726;2022-09-12T11:41:40;5.03;;;4.73;;
2225;SDS011;1119;48.288;8.726;2022-09-12T11:44:14;3.60;;;3.50;;
2225;SDS011;1119;48.288;8.726;2022-09-12T11:46:47;3.40;;;3.30;;
2225;SDS011;1119;48.288;8.726;2022-09-12T11:49:19;4.07;;;3.97;;
2225;SDS011;1119;48.288;8.726;2022-09-12T11:51:55;3.90;;;3.80;;
2225;SDS011;1119;48.288;8.726;2022-09-12T11:54:29;3.57;;;3.37;;
2225;SDS011;1119;48.288;8.726;2022-09-12T11:57:32;3.70;;;3.50;;
2225;SDS011;1119;48.288;8.726;2022-09-12T12:00:08;3.40;;;3.30;;
2225;SDS011;1119;48.288;8.726;2022-09-12T12:05:28;3.77;;;3.67;;
2225;SDS011;1119;48.288;8.726;2022-09-12T12:08:03;4.10;;;3.87;;
2225;SDS011;1119;48.288;8.726;2022-09-12T12:10:34;3.93;;;3.73;;
2225;SDS011;1119;48.288;8.726;2022-09-12T12:13:06;4.23;;;3.83;;
2225;SDS011;1119;48.288;8.726;2022-09-12T12:15:44;3.33;;;3.23;;
2225;SDS011;1119;48.288;8.726;2022-09-12T12:18:15;3.33;;;3.23;;
2225;SDS011;1119;48.288;8.726;2022-09-12T12:20:45;3.20;;;3.10;;
2225;SDS011;1119;48.288;8.726;2022-09-12T12:23:23;4.20;;;4.00;;
2225;SDS011;1119;48.288;8.726;2022-09-12T12:25:53;3.57;;;3.47;;
2225;SDS011;1119;48.288;8.726;2022-09-12T12:31:30;4.47;;;4.37;;
2225;SDS011;1119;48.288;8.726;2022-09-12T12:36:52;4.20;;;4.10;;
2225;SDS011;1119;48.288;8.726;2022-09-12T12:48:46;4.00;;;3.90;;
2225;SDS011;1119;48.288;8.726;2022-09-12T12:51:25;4.10;;;4.00;;
2225;SDS011;1119;48.288;8.726;2022-09-12T12:54:25;4.60;;;4.50;;
2225;SDS011;1119;48.288;8.726;2022-09-12T12:57:19;4.20;;;4.00;;
2225;SDS011;1119;48.288;8.726;2022-09-12T12:59:56;4.57;;;4.47;;
2225;SDS011;1119;48.288;8.726;2022-09-12T13:02:31;5.33;;;5.03;;
2225;SDS011;1119;48.288;8.726;2022-09-12T13:05:02;4.80;;;4.70;;
2225;SDS011;1119;48.288;8.726;2022-09-12T13:07:41;4.50;;;4.40;;
2225;SDS011;1119;48.288;8.726;2022-09-12T13:10:18;4.30;;;4.20;;
2225;SDS011;1119;48.288;8.726;2022-09-12T13:12:49;4.30;;;4.20;;
2225;SDS011;1119;48.288;8.726;2022-09-12T13:18:28;4.20;;;4.00;;
2225;SDS011;1119;48.288;8.726;2022-09-12T13:21:07;4.37;;;4.23;;
2225;SDS011;1119;48.288;8.726;2022-09-12T13:23:39;4.20;;;4.10;;
2225;SDS011;1119;48.288;8.726;2022-09-12T13:26:11;4.10;;;4.00;;
2225;SDS011;1119;48.288;8.726;2022-09-12T13:28:47;3.40;;;3.30;;
2225;SDS011;1119;48.288;8.726;2022-09-12T13:31:16;4.30;;;4.20;;
2225;SDS011;1119;48.288;8.726;2022-09-12T13:33:50;4.60;;;4.30;;
2225;SDS011;1119;48.288;8.726;2022-09-12T13:36:27;4.23;;;4.13;;
2225;SDS011;1119;48.288;8.726;2022-09-12T13:39:16;4.17;;;4.07;;
2225;SDS011;1119;48.288;8.726;2022-09-12T13:41:58;5.13;;;4.93;;
2225;SDS011;1119;48.288;8.726;2022-09-12T13:44:54;4.17;;;4.07;;
2225;SDS011;1119;48.288;8.726;2022-09-12T13:47:28;4.37;;;4.27;;
2225;SDS011;1119;48.288;8.726;2022-09-12T13:50:00;4.57;;;4.47;;
2225;SDS011;1119;48.288;8.726;2022-09-12T13:52:29;5.27;;;5.17;;
2225;SDS011;1119;48.288;8.726;2022-09-12T13:54:59;3.63;;;3.53;;
2225;SDS011;1119;48.288;8.726;2022-09-12T13:57:32;3.50;;;3.40;;
2225;SDS011;1119;48.288;8.726;2022-09-12T14:00:04;4.07;;;3.97;;
2225;SDS011;1119;48.288;8.726;2022-09-12T14:02:40;4.37;;;4.10;;
2225;SDS011;1119;48.288;8.726;2022-09-12T14:05:12;4.07;;;3.97;;
2225;SDS011;1119;48.288;8.726;2022-09-12T14:07:51;4.27;;;4.10;;
2225;SDS011;1119;48.288;8.726;2022-09-12T14:10:22;4.50;;;4.40;;
2225;SDS011;1119;48.288;8.726;2022-09-12T14:12:56;4.10;;;4.00;;
2225;SDS011;1119;48.288;8.726;2022-09-12T14:15:25;4.00;;;3.90;;
2225;SDS011;1119;48.288;8.726;2022-09-12T14:17:55;3.87;;;3.77;;
2225;SDS011;1119;48.288;8.726;2022-09-12T14:20:27;4.00;;;3.90;;
2225;SDS011;1119;48.288;8.726;2022-09-12T14:22:58;3.80;;;3.70;;
2225;SDS011;1119;48.288;8.726;2022-09-12T14:25:27;4.33;;;4.23;;
2225;SDS011;1119;48.288;8.726;2022-09-12T14:28:03;3.70;;;3.50;;
2225;SDS011;1119;48.288;8.726;2022-09-12T14:30:32;3.40;;;3.30;;
2225;SDS011;1119;48.288;8.726;2022-09-12T14:33:11;4.10;;;4.00;;
2225;SDS011;1119;48.288;8.726;2022-09-12T14:35:47;4.10;;;3.80;;
2225;SDS011;1119;48.288;8.726;2022-09-12T14:38:18;4.23;;;4.13;;
2225;SDS011;1119;48.288;8.726;2022-09-12T14:40:51;4.20;;;4.10;;
2225;SDS011;1119;48.288;8.726;2022-09-12T14:43:25;3.50;;;3.40;;
2225;SDS011;1119;48.288;8.726;2022-09-12T14:45:57;3.60;;;3.50;;
2225;SDS011;1119;48.288;8.726;2022-09-12T14:48:26;4.13;;;4.03;;
2225;SDS011;1119;48.288;8.726;2022-09-12T14:50:58;4.17;;;3.87;;
2225;SDS011;1119;48.288;8.726;2022-09-12T14:53:30;3.50;;;3.30;;
2225;SDS011;1119;48.288;8.726;2022-09-12T14:56:04;3.57;;;3.47;;
2225;SDS011;1119;48.288;8.726;2022-09-12T14:58:34;3.83;;;3.63;;
2225;SDS011;1119;48.288;8.726;2022-09-12T15:01:19;3.60;;;3.50;;
2225;SDS011;1119;48.288;8.726;2022-09-12T15:03:50;3.67;;;3.57;;
2225;SDS011;1119;48.288;8.726;2022-09-12T15:06:22;3.30;;;3.20;;
2225;SDS011;1119;48.288;8.726;2022-09-12T15:08:54;3.37;;;3.27;;
2225;SDS011;1119;48.288;8.726;2022-09-12T15:11:23;3.70;;;3.60;;
2225;SDS011;1119;48.288;8.726;2022-09-12T15:13:50;3.43;;;3.33;;
2225;SDS011;1119;48.288;8.726;2022-09-12T15:16:17;3.87;;;3.77;;
2225;SDS011;1119;48.288;8.726;2022-09-12T15:18:45;3.37;;;3.27;;
2225;SDS011;1119;48.288;8.726;2022-09-12T15:21:13;4.60;;;3.53;;
2225;SDS011;1119;48.288;8.726;2022-09-12T15:23:45;3.60;;;3.50;;
2225;SDS011;1119;48.288;8.726;2022-09-12T15:26:15;4.00;;;3.80;;
2225;SDS011;1119;48.288;8.726;2022-09-12T15:28:44;3.50;;;3.40;;
2225;SDS011;1119;48.288;8.726;2022-09-12T15:31:14;3.40;;;3.30;;
2225;SDS011;1119;48.288;8.726;2022-09-12T15:33:47;3.60;;;3.50;;
2225;SDS011;1119;48.288;8.726;2022-09-12T15:36:15;7.40;;;6.90;;
2225;SDS011;1119;48.288;8.726;2022-09-12T15:38:46;7.77;;;7.37;;
2225;SDS011;1119;48.288;8.726;2022-09-12T15:41:15;4.53;;;4.40;;
2225;SDS011;1119;48.288;8.726;2022-09-12T15:43:44;4.03;;;3.93;;
2225;SDS011;1119;48.288;8.726;2022-09-12T15:46:12;3.80;;;3.70;;
2225;SDS011;1119;48.288;8.726;2022-09-12T15:48:41;4.00;;;3.80;;
2225;SDS011;1119;48.288;8.726;2022-09-12T15:51:09;4.20;;;4.10;;
2225;SDS011;1119;48.288;8.726;2022-09-12T15:53:38;4.13;;;4.00;;
2225;SDS011;1119;48.288;8.726;2022-09-12T15:56:07;4.07;;;3.80;;
2225;SDS011;1119;48.288;8.726;2022-09-12T15:58:34;3.47;;;3.37;;
2225;SDS011;1119;48.288;8.726;2022-09-12T16:01:02;3.60;;;3.50;;
2225;SDS011;1119;48.288;8.726;2022-09-12T16:03:29;3.93;;;3.83;;
2225;SDS011;1119;48.288;8.726;2022-09-12T16:05:57;3.63;;;3.53;;
2225;SDS011;1119;48.288;8.726;2022-09-12T16:08:26;3.03;;;2.93;;
2225;SDS011;1119;48.288;8.726;2022-09-12T16:10:56;3.90;;;3.70;;
2225;SDS011;1119;48.288;8.726;2022-09-12T16:13:27;3.97;;;3.63;;
2225;SDS011;1119;48.288;8.726;2022-09-12T16:15:55;3.60;;;3.50;;
2225;SDS011;1119;48.288;8.726;2022-09-12T16:18:22;4.03;;;3.83;;
2225;SDS011;1119;48.288;8.726;2022-09-12T16:20:50;3.60;;;3.50;;
2225;SDS011;1119;48.288;8.726;2022-09-12T16:23:18;4.57;;;4.17;;
2225;SDS011;1119;48.288;8.726;2022-09-12T16:25:54;4.40;;;4.20;;